Time;durP1;ratioP1;P1;durP2;ratioP2;P2;SDS_P1;SDS_P2;PMS_P1;PMS_P2;Temp;Humidity;BMP_temperature;BMP_pressure;BME280_temperature;BME280_humidity;BME280_pressure;Samples;Min_cycle;Max_cycle;Signal;HPM_P1;HPM_P2
2022/05/02 00:00:09;;;;;;;6.35;5.75;;;13.90;99.90;;;;;;5092125;28;20025;-88
2022/05/02 00:02:36;;;;;;;7.57;5.35;;;14.00;99.90;;;;;;5091998;28;20028;-88
2022/05/02 00:05:02;;;;;;;6.72;6.05;;;13.60;99.90;;;;;;5092609;28;20453;-88
2022/05/02 00:07:28;;;;;;;5.75;5.15;;;13.90;99.90;;;;;;5090530;28;20024;-88
2022/05/02 00:09:53;;;;;;;7.20;5.60;;;13.90;99.90;;;;;;5090693;28;20035;-89
2022/05/02 00:12:19;;;;;;;7.93;5.72;;;13.70;99.90;;;;;;5092762;28;20016;-89
2022/05/02 00:14:44;;;;;;;6.53;5.35;;;13.70;99.90;;;;;;5092243;28;20059;-88
2022/05/02 00:17:10;;;;;;;6.35;5.60;;;13.70;99.90;;;;;;5092192;28;20100;-88
2022/05/02 00:19:36;;;;;;;5.80;5.28;;;13.60;99.90;;;;;;5091967;28;20028;-88
2022/05/02 00:22:02;;;;;;;8.02;5.50;;;13.30;99.90;;;;;;5092235;28;20046;-89
2022/05/02 00:24:27;;;;;;;8.27;5.75;;;13.30;99.90;;;;;;5092518;28;20032;-88
2022/05/02 00:26:53;;;;;;;6.68;5.72;;;13.40;99.90;;;;;;5091664;28;20380;-88
2022/05/02 00:29:19;;;;;;;6.63;5.93;;;13.50;99.90;;;;;;5091640;28;20043;-88
2022/05/02 00:31:48;;;;;;;6.38;5.78;;;13.30;99.90;;;;;;5090686;28;20024;-88
2022/05/02 00:34:14;;;;;;;7.35;6.03;;;13.10;99.90;;;;;;5076191;28;20081;-89
2022/05/02 00:36:40;;;;;;;6.13;5.53;;;13.10;99.90;;;;;;5092271;28;20031;-88
2022/05/02 00:39:06;;;;;;;6.43;5.65;;;13.20;99.90;;;;;;5090121;28;20032;-88
2022/05/02 00:41:31;;;;;;;6.22;5.63;;;13.10;99.90;;;;;;5091566;28;20090;-88
2022/05/02 00:43:57;;;;;;;6.65;6.05;;;13.00;99.90;;;;;;5095423;28;20060;-88
2022/05/02 00:46:26;;;;;;;6.85;6.03;;;13.00;99.90;;;;;;5095867;28;20532;-88
2022/05/02 00:48:53;;;;;;;6.88;6.05;;;13.00;99.90;;;;;;5096238;28;20028;-88
2022/05/02 00:51:19;;;;;;;6.90;5.60;;;12.90;99.90;;;;;;5096182;28;20028;-88
2022/05/02 00:53:51;;;;;;;6.38;5.78;;;13.10;99.90;;;;;;5094993;28;20560;-88
2022/05/02 00:56:17;;;;;;;8.40;5.95;;;12.80;99.90;;;;;;5096492;28;20032;-88
2022/05/02 00:58:44;;;;;;;6.93;6.05;;;12.40;99.90;;;;;;5095298;28;20096;-87
2022/05/02 01:01:09;;;;;;;6.60;5.78;;;12.20;99.90;;;;;;5095812;28;20034;-88
2022/05/02 01:03:35;;;;;;;6.93;5.90;;;12.40;99.90;;;;;;5096535;28;20103;-88
2022/05/02 01:08:47;;;;;;;7.35;6.45;;;12.60;99.90;;;;;;5096206;28;20059;-88
2022/05/02 01:11:13;;;;;;;8.38;6.30;;;12.70;99.90;;;;;;5096059;28;20465;-88
2022/05/02 01:13:47;;;;;;;6.53;5.93;;;12.70;99.90;;;;;;5093878;28;20024;-88
2022/05/02 01:16:21;;;;;;;6.35;5.75;;;12.60;99.90;;;;;;5079602;28;20021;-88
2022/05/02 01:18:49;;;;;;;7.78;6.38;;;12.60;99.90;;;;;;5096068;28;20032;-88
2022/05/02 01:21:20;;;;;;;7.60;5.85;;;12.60;99.90;;;;;;5095744;28;20024;-88
2022/05/02 01:23:51;;;;;;;8.10;6.32;;;12.60;99.90;;;;;;5095335;28;20043;-88
2022/05/02 01:26:17;;;;;;;7.22;6.53;;;12.60;99.90;;;;;;5094701;28;20080;-87
2022/05/02 01:28:45;;;;;;;7.53;5.85;;;12.60;99.90;;;;;;5093950;28;20028;-88
2022/05/02 01:31:11;;;;;;;7.43;6.32;;;12.60;99.90;;;;;;5094079;28;20111;-88
2022/05/02 01:33:37;;;;;;;6.63;6.03;;;12.60;99.90;;;;;;5094537;28;20024;-88
2022/05/02 01:36:03;;;;;;;6.55;5.95;;;12.50;99.90;;;;;;5094156;28;20038;-89
2022/05/02 01:38:29;;;;;;;7.85;6.57;;;12.60;99.90;;;;;;5095376;28;20023;-88
2022/05/02 01:40:55;;;;;;;6.70;6.10;;;12.50;99.90;;;;;;5094609;28;20547;-88
2022/05/02 01:43:21;;;;;;;7.28;6.00;;;12.40;99.90;;;;;;5094750;28;20145;-86
2022/05/02 01:45:46;;;;;;;7.15;6.38;;;12.50;99.90;;;;;;5095720;28;20107;-88
2022/05/02 01:48:12;;;;;;;6.88;6.18;;;12.30;99.90;;;;;;5093523;28;20035;-88
2022/05/02 01:50:38;;;;;;;6.88;6.22;;;12.30;99.90;;;;;;5094612;28;20500;-88
2022/05/02 01:53:03;;;;;;;7.20;6.45;;;12.20;99.90;;;;;;5093392;28;20381;-88
2022/05/02 01:55:29;;;;;;;7.30;6.65;;;12.30;99.90;;;;;;5093967;28;20063;-88
2022/05/02 01:57:55;;;;;;;7.50;6.43;;;12.20;99.90;;;;;;5094841;28;20027;-88
2022/05/02 02:00:21;;;;;;;6.95;6.25;;;12.30;99.90;;;;;;5095236;28;20024;-87
2022/05/02 02:02:46;;;;;;;7.10;6.18;;;12.30;99.90;;;;;;5093383;28;20405;-88
2022/05/02 02:07:56;;;;;;;7.65;6.32;;;12.10;99.90;;;;;;5095686;28;20062;-88
2022/05/02 02:10:22;;;;;;;8.95;6.75;;;12.20;99.90;;;;;;5094313;28;20028;-88
2022/05/02 02:12:47;;;;;;;8.43;6.75;;;12.20;99.90;;;;;;5094452;28;20111;-89
2022/05/02 02:15:14;;;;;;;6.97;6.28;;;12.10;99.90;;;;;;5093466;28;20096;-88
2022/05/02 02:17:43;;;;;;;7.43;6.53;;;12.20;99.90;;;;;;5094568;28;20151;-89
2022/05/02 02:20:11;;;;;;;7.35;6.68;;;12.20;99.90;;;;;;5092779;28;20024;-88
2022/05/02 02:22:38;;;;;;;8.75;6.43;;;11.90;99.90;;;;;;5093396;28;20100;-88
2022/05/02 02:25:05;;;;;;;7.85;6.78;;;11.80;99.90;;;;;;5094193;28;20445;-88
2022/05/02 02:27:31;;;;;;;7.60;6.45;;;11.80;99.90;;;;;;5093661;28;20483;-88
2022/05/02 02:29:57;;;;;;;7.55;6.78;;;12.00;99.90;;;;;;5094814;28;20036;-88
2022/05/02 02:32:23;;;;;;;6.80;6.13;;;11.90;99.90;;;;;;5092663;28;20077;-88
2022/05/02 02:34:49;;;;;;;7.25;6.57;;;11.90;99.90;;;;;;5094057;28;20123;-89
2022/05/02 02:37:16;;;;;;;7.55;6.82;;;11.90;99.90;;;;;;5093019;28;20451;-88
2022/05/02 02:39:42;;;;;;;8.00;6.95;;;12.00;99.90;;;;;;5094552;28;20176;-88
2022/05/02 02:42:08;;;;;;;7.03;6.32;;;12.10;99.90;;;;;;5094184;28;20025;-88
2022/05/02 02:44:33;;;;;;;10.38;6.93;;;11.70;99.90;;;;;;5093851;28;20024;-88
2022/05/02 02:46:59;;;;;;;8.10;6.63;;;11.40;99.90;;;;;;5092902;28;20024;-88
2022/05/02 02:49:25;;;;;;;7.55;6.28;;;11.50;99.90;;;;;;5092705;28;20050;-88
2022/05/02 02:51:51;;;;;;;7.35;6.35;;;10.90;99.90;;;;;;5094241;28;20025;-88
2022/05/02 02:54:16;;;;;;;7.90;6.93;;;10.90;99.90;;;;;;5093099;28;20495;-88
2022/05/02 02:56:42;;;;;;;7.18;6.43;;;11.20;99.90;;;;;;5092307;28;20025;-88
2022/05/02 02:59:08;;;;;;;7.90;7.10;;;11.20;99.90;;;;;;5092294;28;20027;-88
2022/05/02 03:01:34;;;;;;;7.57;6.47;;;11.40;99.90;;;;;;5092221;28;20173;-88
2022/05/02 03:06:01;;;;;;;10.88;6.63;;;11.30;99.90;;;;;;5093482;28;20039;-89
2022/05/02 03:06:45;;;;;;;8.73;6.50;;;11.40;99.90;;;;;;5090157;28;20495;-88
2022/05/02 03:09:11;;;;;;;8.13;6.20;;;11.20;99.90;;;;;;5092638;28;20134;-88
2022/05/02 03:11:37;;;;;;;7.38;6.68;;;11.00;99.90;;;;;;5093477;28;20396;-88
2022/05/02 03:14:02;;;;;;;9.20;6.82;;;11.30;99.90;;;;;;5092030;28;20024;-88
2022/05/02 03:16:28;;;;;;;6.97;6.30;;;11.30;99.90;;;;;;5092151;28;20399;-88
2022/05/02 03:18:54;;;;;;;8.00;7.20;;;11.30;99.90;;;;;;5093320;28;20039;-88
2022/05/02 03:21:19;;;;;;;7.40;6.70;;;11.10;99.90;;;;;;5092359;28;20020;-88
2022/05/02 03:23:45;;;;;;;7.82;7.13;;;10.90;99.90;;;;;;5092574;28;20031;-88
2022/05/02 03:26:10;;;;;;;8.07;7.28;;;11.30;99.90;;;;;;5092417;28;20404;-88
2022/05/02 03:28:36;;;;;;;7.72;6.93;;;11.40;99.90;;;;;;5092043;28;20085;-89
2022/05/02 03:31:02;;;;;;;8.55;6.85;;;11.10;99.90;;;;;;5091516;28;20455;-88
2022/05/02 03:33:27;;;;;;;8.50;7.50;;;11.20;99.90;;;;;;5093284;28;20114;-88
2022/05/02 03:35:53;;;;;;;7.90;7.13;;;11.30;99.90;;;;;;5092821;28;20115;-88
2022/05/02 03:38:19;;;;;;;9.98;6.97;;;11.40;99.90;;;;;;5091462;28;20042;-88
2022/05/02 03:40:44;;;;;;;9.40;7.55;;;11.30;99.90;;;;;;5092811;28;20020;-88
2022/05/02 03:43:10;;;;;;;7.72;6.93;;;11.30;99.90;;;;;;5092027;28;20085;-88
2022/05/02 03:45:36;;;;;;;8.35;7.50;;;11.40;99.90;;;;;;5092213;28;20027;-89
2022/05/02 03:48:01;;;;;;;8.20;7.40;;;11.20;99.90;;;;;;5091830;28;20487;-88
2022/05/02 03:50:27;;;;;;;8.07;7.38;;;11.20;99.90;;;;;;5091712;28;20032;-88
2022/05/02 03:52:53;;;;;;;8.43;7.47;;;11.30;99.90;;;;;;5092129;28;20551;-88
2022/05/02 03:55:19;;;;;;;7.70;6.95;;;11.00;99.90;;;;;;5092507;28;20039;-89
2022/05/02 03:57:44;;;;;;;7.97;7.18;;;10.90;99.90;;;;;;5091908;28;20044;-88
2022/05/02 04:00:10;;;;;;;8.57;6.93;;;10.90;99.90;;;;;;5091266;28;20119;-88
2022/05/02 04:02:36;;;;;;;12.68;7.38;;;10.90;99.90;;;;;;5090758;28;20515;-88
2022/05/02 04:05:01;;;;;;;8.95;8.05;;;11.00;99.90;;;;;;5091367;28;20078;-88
2022/05/02 04:07:27;;;;;;;8.23;6.82;;;11.20;99.90;;;;;;5091108;28;20055;-88
2022/05/02 04:09:52;;;;;;;9.18;7.63;;;11.10;99.90;;;;;;5092383;28;20069;-88
2022/05/02 04:12:18;;;;;;;8.57;7.45;;;11.00;99.90;;;;;;5091584;28;20028;-88
2022/05/02 04:14:44;;;;;;;9.32;7.30;;;11.20;99.90;;;;;;5090852;28;20032;-88
2022/05/02 04:17:10;;;;;;;7.85;6.95;;;10.80;99.90;;;;;;5091490;28;20017;-88
2022/05/02 04:19:35;;;;;;;8.20;7.28;;;10.90;99.90;;;;;;5092324;28;20024;-88
2022/05/02 04:22:01;;;;;;;7.90;7.10;;;10.90;99.90;;;;;;5092579;28;20426;-88
2022/05/02 04:24:28;;;;;;;8.98;6.90;;;11.00;99.90;;;;;;5092918;28;20039;-88
2022/05/02 04:26:54;;;;;;;9.18;7.68;;;10.60;99.90;;;;;;5092125;28;20059;-88
2022/05/02 04:29:20;;;;;;;9.38;7.70;;;10.40;99.90;;;;;;5090771;28;20491;-88
2022/05/02 04:31:45;;;;;;;9.18;8.10;;;10.50;99.90;;;;;;5091900;28;20103;-87
2022/05/02 04:34:11;;;;;;;11.18;7.78;;;10.30;99.90;;;;;;5090882;28;20039;-88
2022/05/02 04:36:37;;;;;;;9.25;7.72;;;10.10;99.90;;;;;;5092622;28;20024;-88
2022/05/02 04:39:02;;;;;;;9.50;7.68;;;9.90;99.90;;;;;;5091641;28;20476;-87
2022/05/02 04:41:28;;;;;;;9.50;7.63;;;10.10;99.90;;;;;;5091688;28;20047;-86
2022/05/02 04:43:55;;;;;;;10.45;6.97;;;10.00;99.90;;;;;;5092005;28;20024;-88
2022/05/02 04:46:20;;;;;;;8.48;7.68;;;10.00;99.90;;;;;;5092071;28;20027;-88
2022/05/02 04:48:46;;;;;;;8.52;7.60;;;10.30;99.90;;;;;;5091078;28;20480;-88
2022/05/02 04:51:12;;;;;;;9.50;7.97;;;10.40;99.90;;;;;;5090749;28;20070;-88
2022/05/02 04:53:37;;;;;;;9.02;7.97;;;10.60;99.90;;;;;;5091687;28;20036;-88
2022/05/02 04:56:03;;;;;;;8.73;7.63;;;10.90;99.90;;;;;;5090547;28;20112;-89
2022/05/02 04:58:29;;;;;;;10.50;7.68;;;10.80;99.90;;;;;;5090494;28;20020;-88
2022/05/02 05:00:54;;;;;;;9.48;7.85;;;10.60;99.90;;;;;;5092696;28;20041;-88
2022/05/02 05:03:23;;;;;;;8.60;7.65;;;10.70;99.90;;;;;;5090866;28;20476;-88
2022/05/02 05:05:49;;;;;;;8.38;7.43;;;10.80;99.90;;;;;;5091211;28;20032;-88
2022/05/02 05:08:15;;;;;;;10.40;7.72;;;10.90;99.90;;;;;;5090169;28;20047;-88
2022/05/02 05:10:53;;;;;;;8.88;7.18;;;10.90;99.90;;;;;;5091598;28;20032;-88
2022/05/02 05:13:22;;;;;;;14.23;8.27;;;10.50;99.90;;;;;;5075511;28;20046;-88
2022/05/02 05:18:41;;;;;;;12.82;8.75;;;11.20;99.90;;;;;;5092546;28;20039;-88
2022/05/02 05:21:32;;;;;;;10.55;7.93;;;10.80;99.90;;;;;;5090210;28;20032;-88
2022/05/02 05:24:30;;;;;;;10.35;7.65;;;10.60;99.90;;;;;;5091290;28;20024;-88
2022/05/02 05:27:19;;;;;;;10.63;8.15;;;11.00;99.90;;;;;;5032241;28;20087;-88
2022/05/02 05:30:07;;;;;;;10.10;7.82;;;11.20;99.90;;;;;;5042299;28;20069;-88
2022/05/02 05:32:47;;;;;;;12.07;8.40;;;11.00;99.90;;;;;;5043055;28;20033;-88
2022/05/02 05:35:21;;;;;;;15.05;8.63;;;10.90;99.90;;;;;;5049221;28;20096;-89
2022/05/02 05:38:06;;;;;;;9.80;8.00;;;11.20;99.90;;;;;;5020578;28;20041;-87
2022/05/02 05:40:36;;;;;;;9.27;7.60;;;11.40;99.90;;;;;;5022988;28;20021;-88
2022/05/02 05:43:26;;;;;;;10.18;7.97;;;11.00;99.90;;;;;;5037103;28;20033;-88
2022/05/02 05:46:14;;;;;;;8.82;7.93;;;10.90;99.90;;;;;;5050026;28;20083;-89
2022/05/02 05:48:58;;;;;;;14.80;8.43;;;10.80;99.90;;;;;;5036176;28;20128;-87
2022/05/02 05:51:39;;;;;;;10.95;8.00;;;11.00;99.90;;;;;;5050828;28;20295;-88
2022/05/02 05:54:58;;;;;;;11.60;8.70;;;11.00;99.90;;;;;;5048493;28;20029;-88
2022/05/02 05:57:39;;;;;;;11.80;8.35;;;11.10;99.90;;;;;;5000235;28;20096;-89
2022/05/02 06:00:15;;;;;;;10.90;8.32;;;11.70;99.90;;;;;;4996201;28;20570;-88
2022/05/02 06:03:14;;;;;;;11.85;8.52;;;12.00;99.90;;;;;;5023218;28;20115;-88
2022/05/02 06:05:43;;;;;;;15.80;9.38;;;12.20;99.90;;;;;;5042083;28;20088;-88
2022/05/02 06:08:11;;;;;;;10.18;8.68;;;12.30;99.90;;;;;;5030943;28;20145;-88
2022/05/02 06:10:38;;;;;;;13.27;8.68;;;12.40;99.90;;;;;;5018272;28;20036;-88
2022/05/02 06:13:06;;;;;;;12.45;8.63;;;12.50;99.90;;;;;;5017082;28;20041;-88
2022/05/02 06:18:30;;;;;;;14.20;9.00;;;12.60;99.90;;;;;;5048120;28;20098;-88
2022/05/02 06:21:01;;;;;;;12.23;9.63;;;12.60;99.90;;;;;;5019753;28;20137;-88
2022/05/02 06:23:31;;;;;;;13.02;10.38;;;12.50;99.90;;;;;;5022357;28;20038;-88
2022/05/02 06:25:57;;;;;;;15.98;10.02;;;12.80;99.90;;;;;;5036932;28;20124;-88
2022/05/02 06:28:30;;;;;;;11.23;9.75;;;12.70;99.90;;;;;;5033779;28;20517;-88
2022/05/02 06:30:59;;;;;;;11.85;9.73;;;12.60;99.90;;;;;;5054108;28;20056;-89
2022/05/02 06:33:25;;;;;;;15.10;9.45;;;12.70;99.90;;;;;;5092282;28;20151;-89
2022/05/02 06:36:18;;;;;;;13.07;9.15;;;12.80;99.90;;;;;;5093968;28;20047;-88
2022/05/02 06:38:49;;;;;;;10.00;8.98;;;13.00;99.90;;;;;;5094074;28;20028;-88
2022/05/02 06:41:20;;;;;;;9.68;8.73;;;13.10;99.90;;;;;;5092219;28;20079;-88
2022/05/02 06:44:18;;;;;;;11.45;8.55;;;12.80;99.90;;;;;;5094093;28;20032;-88
2022/05/02 06:47:25;;;;;;;12.73;9.50;;;13.00;99.90;;;;;;5080088;28;20016;-88
2022/05/02 06:49:56;;;;;;;11.57;9.38;;;13.00;99.90;;;;;;5082642;28;20028;-88
2022/05/02 06:52:27;;;;;;;12.93;9.20;;;12.90;99.90;;;;;;5094015;28;20043;-89
2022/05/02 06:55:11;;;;;;;11.63;9.52;;;13.10;99.90;;;;;;5093696;28;20162;-88
2022/05/02 06:58:16;;;;;;;10.40;9.25;;;13.10;99.90;;;;;;5092686;28;20540;-88
2022/05/02 07:01:08;;;;;;;11.73;9.73;;;13.40;99.90;;;;;;5089445;28;20032;-87
2022/05/02 07:04:17;;;;;;;10.35;9.23;;;13.30;99.90;;;;;;5068263;28;20037;-88
2022/05/02 07:06:46;;;;;;;10.45;9.35;;;13.30;99.90;;;;;;5068084;28;20052;-88
2022/05/02 07:09:21;;;;;;;10.43;9.32;;;13.70;99.90;;;;;;5072031;28;20048;-88
2022/05/02 07:12:04;;;;;;;12.73;9.43;;;13.70;99.90;;;;;;5072124;28;20024;-88
2022/05/02 07:14:42;;;;;;;10.20;9.00;;;13.40;99.90;;;;;;5054882;28;20036;-88
2022/05/02 07:17:34;;;;;;;12.90;10.25;;;13.40;99.90;;;;;;5071748;28;20043;-87
2022/05/02 07:20:05;;;;;;;11.27;9.70;;;13.50;99.90;;;;;;5071456;28;20032;-89
2022/05/02 07:22:37;;;;;;;12.00;10.20;;;13.80;99.90;;;;;;5070473;28;20021;-88
2022/05/02 07:25:10;;;;;;;11.40;9.85;;;13.50;99.90;;;;;;5070793;28;20063;-89
2022/05/02 07:27:56;;;;;;;10.60;9.52;;;13.70;99.90;;;;;;5070978;28;20086;-89
2022/05/02 07:30:23;;;;;;;11.18;9.45;;;14.00;99.90;;;;;;5040335;28;20064;-85
2022/05/02 07:32:56;;;;;;;12.60;9.98;;;14.10;99.90;;;;;;5068232;28;20031;-87
2022/05/02 07:35:23;;;;;;;12.88;9.75;;;14.10;99.90;;;;;;5070730;28;20513;-88
2022/05/02 07:37:50;;;;;;;11.75;9.65;;;14.10;99.90;;;;;;5069737;28;20545;-86
2022/05/02 07:40:19;;;;;;;11.45;9.23;;;14.00;99.90;;;;;;5062638;28;20135;-87
2022/05/02 07:42:45;;;;;;;12.95;9.93;;;14.10;99.90;;;;;;5093430;28;20027;-90
2022/05/02 07:45:14;;;;;;;11.48;9.63;;;14.00;99.90;;;;;;5092227;28;20077;-86
2022/05/02 07:47:43;;;;;;;10.80;9.63;;;14.10;99.90;;;;;;5092552;28;20434;-85
2022/05/02 07:50:11;;;;;;;11.00;9.90;;;14.20;99.90;;;;;;5092419;28;20024;-85
2022/05/02 07:52:40;;;;;;;11.50;8.82;;;14.10;99.90;;;;;;5091515;28;20034;-86
2022/05/02 07:55:07;;;;;;;11.65;9.52;;;14.40;99.90;;;;;;5090725;28;20035;-87
2022/05/02 07:57:37;;;;;;;10.57;9.48;;;14.50;99.90;;;;;;5092958;28;20089;-87
2022/05/02 08:00:06;;;;;;;10.65;9.50;;;14.50;99.90;;;;;;5090475;28;20043;-86
2022/05/02 08:02:33;;;;;;;11.27;8.82;;;14.50;99.90;;;;;;5091862;28;20055;-87
2022/05/02 08:04:59;;;;;;;15.63;9.45;;;14.60;99.90;;;;;;5092046;28;20020;-86
2022/05/02 08:07:36;;;;;;;11.23;9.23;;;14.60;99.90;;;;;;5092093;28;20034;-89
2022/05/02 08:10:08;;;;;;;10.02;9.02;;;14.20;99.90;;;;;;5091878;28;20071;-88
2022/05/02 08:12:49;;;;;;;12.98;9.20;;;14.30;99.90;;;;;;5092033;28;20035;-85
2022/05/02 08:15:31;;;;;;;11.63;9.98;;;14.50;99.90;;;;;;5091941;28;20042;-84
2022/05/02 08:18:35;;;;;;;13.05;9.15;;;14.40;99.90;;;;;;5091847;28;20035;-86
2022/05/02 08:21:07;;;;;;;10.35;8.88;;;14.70;99.90;;;;;;5091469;28;20119;-86
2022/05/02 08:29:56;;;;;;;11.75;9.18;;;14.60;99.90;;;;;;5094139;28;20092;-85
2022/05/02 08:32:40;;;;;;;10.13;8.82;;;14.90;99.90;;;;;;5091366;28;20028;-85
2022/05/02 08:35:08;;;;;;;9.50;8.60;;;15.00;99.90;;;;;;5091250;28;20080;-85
2022/05/02 08:38:07;;;;;;;9.60;8.30;;;15.10;99.90;;;;;;5091705;28;20031;-85
2022/05/02 08:41:10;;;;;;;9.32;8.27;;;15.20;99.90;;;;;;5078173;28;20490;-85
2022/05/02 08:44:03;;;;;;;10.35;8.38;;;15.40;99.90;;;;;;5077912;28;20054;-85
2022/05/02 08:47:05;;;;;;;11.57;8.73;;;15.40;99.90;;;;;;5077341;28;20032;-86
2022/05/02 08:50:08;;;;;;;8.65;7.85;;;15.20;99.90;;;;;;5077645;28;20032;-86
2022/05/02 08:52:52;;;;;;;11.65;9.07;;;15.30;99.90;;;;;;5091269;28;20016;-86
2022/05/02 08:55:58;;;;;;;10.38;8.45;;;15.40;99.90;;;;;;5075895;28;20055;-86
2022/05/02 08:59:21;;;;;;;12.10;8.80;;;15.50;99.90;;;;;;5054907;28;20029;-86
2022/05/02 09:02:06;;;;;;;11.95;7.75;;;15.70;99.90;;;;;;4997913;28;20441;-86
2022/05/02 09:05:04;;;;;;;11.05;7.72;;;15.80;99.90;;;;;;4995136;28;20073;-86
2022/05/02 09:08:10;;;;;;;11.52;8.27;;;16.10;99.90;;;;;;4980023;28;20098;-91
2022/05/02 09:10:51;;;;;;;9.80;7.85;;;15.80;99.90;;;;;;4975485;28;20094;-87
2022/05/02 09:13:35;;;;;;;9.43;7.53;;;15.90;99.90;;;;;;4963068;28;20069;-87
2022/05/02 09:16:29;;;;;;;7.65;6.85;;;16.00;99.90;;;;;;5005257;28;20457;-87
2022/05/02 09:19:12;;;;;;;10.82;6.75;;;16.10;99.90;;;;;;4990888;28;20073;-84
2022/05/02 09:21:41;;;;;;;7.00;6.25;;;16.30;99.90;;;;;;4978445;28;20418;-84
2022/05/02 09:24:25;;;;;;;8.82;6.68;;;16.40;99.90;;;;;;4988516;28;20031;-84
2022/05/02 09:27:14;;;;;;;9.20;7.25;;;16.60;99.90;;;;;;4988078;28;20054;-83
2022/05/02 09:30:17;;;;;;;7.68;6.57;;;16.70;99.90;;;;;;4985824;28;20050;-84
2022/05/02 09:32:50;;;;;;;7.75;7.03;;;16.70;99.90;;;;;;5017969;28;20102;-84
2022/05/02 09:35:30;;;;;;;8.90;6.78;;;16.70;99.90;;;;;;5074625;28;20093;-84
2022/05/02 09:37:58;;;;;;;8.25;7.45;;;16.70;99.90;;;;;;5075271;28;20411;-84
2022/05/02 09:40:33;;;;;;;9.48;7.22;;;16.60;99.90;;;;;;5094484;28;20024;-84
2022/05/02 09:43:24;;;;;;;9.93;7.43;;;16.80;99.90;;;;;;5094556;28;20036;-84
2022/05/02 09:49:36;;;;;;;10.90;7.32;;;17.10;99.90;;;;;;5094584;28;20522;-86
2022/05/02 09:52:03;;;;;;;8.18;6.88;;;17.00;99.90;;;;;;5092858;28;20034;-87
2022/05/02 09:57:42;;;;;;;9.27;6.85;;;17.30;99.90;;;;;;5094841;28;20043;-88
2022/05/02 10:03:23;;;;;;;8.95;6.90;;;17.40;99.90;;;;;;5094248;28;20039;-89
2022/05/02 10:05:54;;;;;;;10.88;7.18;;;17.40;99.90;;;;;;5092751;28;20020;-86
2022/05/02 10:08:38;;;;;;;8.25;6.95;;;17.40;99.90;;;;;;5093511;28;20067;-87
2022/05/02 10:11:15;;;;;;;7.90;6.57;;;17.40;99.90;;;;;;5093838;28;20032;-89
2022/05/02 10:13:55;;;;;;;11.00;7.55;;;17.60;99.90;;;;;;5093537;28;20074;-89
2022/05/02 10:16:46;;;;;;;8.13;6.90;;;17.60;99.90;;;;;;5078722;28;20391;-89
2022/05/02 10:19:28;;;;;;;7.22;6.35;;;17.70;99.90;;;;;;5094328;28;20446;-89
2022/05/02 10:22:26;;;;;;;9.32;6.85;;;17.80;99.90;;;;;;5090466;28;20162;-89
2022/05/02 10:25:15;;;;;;;6.80;5.85;;;17.90;99.90;;;;;;5090815;28;20090;-89
2022/05/02 10:27:53;;;;;;;7.43;6.68;;;18.30;99.90;;;;;;5093184;28;20083;-88
2022/05/02 10:30:19;;;;;;;8.55;6.28;;;18.30;99.90;;;;;;5092282;28;20054;-88
2022/05/02 10:32:53;;;;;;;8.10;7.13;;;18.30;99.90;;;;;;5093555;28;20035;-87
2022/05/02 10:35:21;;;;;;;7.13;6.18;;;18.20;99.90;;;;;;5093388;28;20048;-88
2022/05/02 10:38:01;;;;;;;8.98;6.40;;;18.50;99.90;;;;;;5095759;28;20062;-88
2022/05/02 10:40:44;;;;;;;7.88;5.95;;;18.90;99.90;;;;;;5108475;28;20077;-84
2022/05/02 10:43:11;;;;;;;6.53;5.85;;;19.10;99.90;;;;;;5093439;28;20073;-86
2022/05/02 10:45:40;;;;;;;6.60;5.63;;;19.20;99.90;;;;;;5093203;28;20054;-89
2022/05/02 10:48:15;;;;;;;6.28;5.65;;;19.30;99.90;;;;;;5096272;28;20380;-90
2022/05/02 10:50:50;;;;;;;8.65;5.70;;;19.30;99.90;;;;;;5093652;28;20090;-90
2022/05/02 10:53:44;;;;;;;7.25;5.88;;;19.50;99.90;;;;;;5091940;28;20085;-87
2022/05/02 10:56:23;;;;;;;7.13;5.90;;;19.80;99.90;;;;;;5093271;28;20447;-88
2022/05/02 10:58:49;;;;;;;5.65;5.07;;;19.70;99.90;;;;;;5093377;28;20085;-90
2022/05/02 11:01:46;;;;;;;7.85;5.53;;;19.60;99.90;;;;;;5093911;28;20523;-87
2022/05/02 11:04:35;;;;;;;8.25;5.72;;;19.80;99.90;;;;;;5092762;28;20077;-85
2022/05/02 11:07:08;;;;;;;6.35;5.82;;;19.70;99.90;;;;;;5090806;28;20028;-85
2022/05/02 11:10:00;;;;;;;6.13;5.53;;;19.60;99.90;;;;;;5093780;28;20063;-85
2022/05/02 11:12:31;;;;;;;7.07;4.88;;;19.90;99.90;;;;;;5091531;28;20040;-87
2022/05/02 11:15:05;;;;;;;6.63;5.13;;;20.40;99.90;;;;;;5092702;28;20083;-86
2022/05/02 11:18:09;;;;;;;7.07;4.90;;;20.70;99.90;;;;;;5092700;28;20032;-86
2022/05/02 11:20:51;;;;;;;5.53;5.00;;;21.30;99.90;;;;;;5093033;28;20020;-86
2022/05/02 11:23:35;;;;;;;7.00;5.15;;;21.70;99.90;;;;;;5092350;28;20419;-86
2022/05/02 11:26:13;;;;;;;7.68;5.30;;;21.70;99.90;;;;;;5092126;28;20035;-86
2022/05/02 11:29:03;;;;;;;7.65;5.45;;;22.20;99.90;;;;;;5091843;28;20519;-85
2022/05/02 11:31:35;;;;;;;5.57;5.05;;;22.90;99.90;;;;;;5078223;28;20030;-86
2022/05/02 11:34:32;;;;;;;7.70;4.80;;;23.20;99.90;;;;;;5091013;28;20094;-86
2022/05/02 11:36:58;;;;;;;9.55;5.18;;;24.20;99.90;;;;;;5089689;28;20032;-86
2022/05/02 11:39:55;;;;;;;5.47;5.07;;;24.60;99.90;;;;;;5093253;28;20092;-84
2022/05/02 11:42:22;;;;;;;5.75;5.18;;;24.80;99.90;;;;;;5092577;28;20032;-84
2022/05/02 11:45:12;;;;;;;5.68;5.18;;;24.90;99.90;;;;;;5092063;28;20024;-84
2022/05/02 11:48:21;;;;;;;6.93;5.22;;;25.20;99.90;;;;;;5086592;28;20048;-84
2022/05/02 11:50:48;;;;;;;5.47;4.97;;;25.00;99.90;;;;;;5090480;28;20135;-84
2022/05/02 11:53:17;;;;;;;5.78;5.28;;;25.20;99.90;;;;;;5091787;28;20392;-84
2022/05/02 11:55:46;;;;;;;6.65;5.38;;;25.10;99.90;;;;;;5091927;28;20219;-84
2022/05/02 11:58:23;;;;;;;5.85;5.25;;;25.40;99.90;;;;;;5092210;28;20438;-84
2022/05/02 12:01:01;;;;;;;4.90;4.40;;;25.60;99.90;;;;;;5089071;28;20030;-84
2022/05/02 12:03:27;;;;;;;5.15;4.65;;;26.60;99.90;;;;;;5090374;28;20024;-85
2022/05/02 12:05:55;;;;;;;5.85;5.28;;;26.80;99.90;;;;;;5091312;28;20024;-84
2022/05/02 12:08:38;;;;;;;5.93;5.43;;;26.80;99.90;;;;;;5091461;28;20039;-84
2022/05/02 12:11:09;;;;;;;5.38;4.88;;;26.90;99.90;;;;;;5092322;28;20108;-84
2022/05/02 12:13:37;;;;;;;5.47;4.97;;;27.20;99.90;;;;;;5091770;28;20399;-84
2022/05/02 12:16:03;;;;;;;5.38;4.25;;;27.10;99.90;;;;;;5091496;28;20032;-84
2022/05/02 12:18:50;;;;;;;5.18;4.68;;;27.20;99.90;;;;;;5091000;28;20058;-83
2022/05/02 12:21:22;;;;;;;5.05;4.57;;;27.20;99.90;;;;;;5091652;28;20093;-83
2022/05/02 12:23:49;;;;;;;4.93;4.43;;;27.50;99.90;;;;;;5091589;28;20032;-83
2022/05/02 12:26:20;;;;;;;5.30;4.80;;;27.30;99.90;;;;;;5091215;28;20051;-83
2022/05/02 12:28:48;;;;;;;4.90;4.32;;;26.40;99.90;;;;;;5091236;28;20038;-84
2022/05/02 12:31:16;;;;;;;4.97;4.57;;;26.60;99.90;;;;;;5075174;28;20077;-84
2022/05/02 12:33:46;;;;;;;5.53;4.65;;;26.10;99.90;;;;;;5087761;28;20016;-83
2022/05/02 12:36:19;;;;;;;8.63;3.70;;;26.40;99.90;;;;;;5091515;28;20028;-83
2022/05/02 12:39:05;;;;;;;4.78;4.20;;;26.70;99.90;;;;;;5090891;28;20036;-84
2022/05/02 12:41:45;;;;;;;4.75;4.35;;;27.10;99.90;;;;;;5091548;28;20039;-84
2022/05/02 12:44:13;;;;;;;4.07;3.70;;;26.80;99.90;;;;;;5091524;28;20111;-84
2022/05/02 12:46:43;;;;;;;4.50;4.10;;;27.60;99.90;;;;;;5091261;28;20519;-84
2022/05/02 12:49:21;;;;;;;5.22;4.18;;;28.10;99.90;;;;;;5091425;28;20465;-84
2022/05/02 12:51:54;;;;;;;5.63;3.80;;;27.80;99.90;;;;;;5087845;28;20017;-84
2022/05/02 12:54:28;;;;;;;7.72;3.88;;;27.40;99.90;;;;;;5090994;28;20035;-83
2022/05/02 13:02:51;;;;;;;5.50;3.60;;;27.50;99.90;;;;;;5091476;28;20038;-84
2022/05/02 13:05:20;;;;;;;3.72;3.42;;;28.20;99.90;;;;;;5090918;28;20036;-84
2022/05/02 13:07:48;;;;;;;4.80;3.63;;;28.30;99.90;;;;;;5090922;28;20020;-84
2022/05/02 13:10:17;;;;;;;4.00;3.67;;;27.80;99.90;;;;;;5075057;28;20032;-84
2022/05/02 13:13:02;;;;;;;5.60;3.30;;;27.50;99.90;;;;;;5087458;28;20049;-84
2022/05/02 13:15:31;;;;;;;4.65;3.20;;;28.10;99.90;;;;;;5089954;28;20098;-84
2022/05/02 13:17:59;;;;;;;4.35;3.33;;;28.40;99.90;;;;;;5090713;28;20042;-84
2022/05/02 13:20:29;;;;;;;4.45;3.45;;;28.30;99.90;;;;;;5090460;28;20411;-84
2022/05/02 13:23:07;;;;;;;3.55;2.85;;;28.10;99.90;;;;;;5090736;28;20468;-84
2022/05/02 13:26:03;;;;;;;5.55;3.63;;;28.40;99.90;;;;;;5091135;28;20035;-84
2022/05/02 13:28:37;;;;;;;3.30;3.00;;;28.40;99.90;;;;;;5073894;28;20500;-84
2022/05/02 13:31:17;;;;;;;5.22;3.33;;;28.30;99.90;;;;;;5090834;28;20024;-84
2022/05/02 13:33:49;;;;;;;3.72;3.08;;;27.80;99.90;;;;;;5087229;28;20020;-84
2022/05/02 13:36:15;;;;;;;5.05;3.38;;;28.10;99.90;;;;;;5090905;28;20119;-84
2022/05/02 13:39:05;;;;;;;4.55;3.05;;;28.10;99.90;;;;;;5090559;28;20028;-84
2022/05/02 13:41:50;;;;;;;3.42;3.13;;;28.00;99.90;;;;;;5090810;28;20025;-84
2022/05/02 13:44:42;;;;;;;3.65;3.20;;;27.30;99.90;;;;;;5090822;28;20028;-84
2022/05/02 13:47:08;;;;;;;3.80;3.13;;;27.60;99.90;;;;;;5088841;28;20479;-84
2022/05/02 13:49:43;;;;;;;3.35;2.92;;;27.90;99.90;;;;;;5090643;28;20028;-84